MDT,Max TemperatureF,Mean TemperatureF,Min TemperatureF,Max Dew PointF,MeanDew PointF,Min DewpointF,Max Humidity, Mean Humidity, Min Humidity, Max Sea Level PressureIn, Mean Sea Level PressureIn, Min Sea Level PressureIn, Max VisibilityMiles, Mean VisibilityMiles, Min VisibilityMiles, Max Wind SpeedMPH, Mean Wind SpeedMPH, Max Gust SpeedMPH,PrecipitationIn, CloudCover, Events, WindDirDegrees
2013-10-1,73,53,33,37,33,27,93,55,20,30.10,30.03,29.96,10,10,10,17,3,25,0.00,0,,193
2013-10-2,68,52,35,43,35,32,87,59,26,30.06,29.96,29.83,10,10,7,20,3,26,0.00,2,Rain,222
2013-10-3,48,40,32,43,35,27,100,82,53,30.06,29.93,29.80,10,8,2,22,5,26,0.00,7,Rain-Snow,76
2013-10-4,46,39,30,32,30,23,100,81,46,30.42,30.25,30.05,10,9,1,14,2,,0.00,5,Snow,47
2013-10-5,53,38,23,32,28,21,100,75,38,30.49,30.45,30.40,10,9,0,10,2,,0.00,1,Fog,216
2013-10-6,64,45,26,37,31,25,100,72,30,30.49,30.40,30.30,10,10,7,5,1,,0.00,0,,133
2013-10-7,73,50,28,36,30,21,100,60,15,30.30,30.13,29.97,10,10,10,18,2,26,0.00,0,,194
2013-10-8,66,54,41,32,25,19,66,35,18,29.98,29.88,29.82,10,10,7,23,6,31,0.00,0,,198
2013-10-9,64,47,30,36,30,28,93,62,28,29.85,29.80,29.75,10,10,10,16,3,34,0.00,3,,151
2013-10-10,50,46,41,41,37,34,93,77,62,29.92,29.77,29.70,10,10,4,17,6,22,0.00,7,Rain-Thunderstorm,207
2013-10-11,55,44,32,36,32,28,100,74,36,30.12,30.04,29.92,10,10,10,15,2,20,0.00,3,,192
2013-10-12,60,43,26,37,29,23,100,65,27,30.13,30.05,29.95,10,10,10,13,3,18,0.00,1,,205
2013-10-13,53,45,37,37,35,32,93,65,47,30.05,29.97,29.92,10,10,2,18,4,26,0.00,7,Rain-Thunderstorm,211
2013-10-14,50,42,33,37,33,25,93,74,37,30.23,30.14,30.03,10,10,7,14,3,20,0.00,6,,28
2013-10-15,46,36,26,32,28,23,100,78,46,30.26,30.23,30.18,10,10,10,12,2,16,0.00,3,,114
2013-10-16,51,35,19,28,24,18,93,70,38,30.29,30.22,30.16,10,10,10,14,3,,0.00,0,Thunderstorm,154
2013-10-17,57,40,23,28,25,21,93,66,27,30.19,30.14,30.06,10,10,10,20,3,25,0.00,0,Thunderstorm,357
2013-10-18,55,39,23,30,26,19,93,68,33,30.28,30.23,30.16,10,10,10,14,2,18,0.00,1,Thunderstorm,206
2013-10-19,60,40,19,30,24,18,93,66,23,30.31,30.23,30.14,10,10,10,12,2,,0.00,0,Thunderstorm,191
2013-10-20,60,43,26,30,24,21,86,59,23,30.15,30.10,30.02,10,10,10,15,3,18,0.00,0,,197
2013-10-21,60,42,23,28,26,19,93,64,27,30.30,30.23,30.16,10,10,10,14,2,,0.00,0,Thunderstorm,171
2013-10-22,64,44,23,32,27,21,93,65,22,30.34,30.27,30.18,10,10,10,10,2,,0.00,0,Thunderstorm,162
2013-10-23,69,46,23,30,27,21,93,63,20,30.28,30.20,30.11,10,10,7,10,1,,0.00,0,Thunderstorm,202
2013-10-24,69,46,24,30,27,21,93,60,17,30.25,30.19,30.11,10,10,10,10,1,,0.00,0,Thunderstorm,211
2013-10-25,68,49,30,32,28,21,93,57,17,30.32,30.26,30.20,10,10,7,10,1,22,0.00,1,Thunderstorm,193
2013-10-26,66,44,23,30,25,19,93,60,17,30.42,30.33,30.26,10,10,5,10,1,,0.00,0,Thunderstorm,175
2013-10-27,64,44,23,32,24,19,93,53,19,30.26,29.99,29.72,10,9,2,22,3,32,0.00,2,Thunderstorm,195
2013-10-28,60,46,33,34,30,21,100,55,22,29.80,29.65,29.50,10,9,4,30,11,45,0.00,5,Rain-Snow-Thunderstorm,167
2013-10-29,48,40,32,34,31,25,100,79,46,29.94,29.87,29.78,10,10,5,10,3,,0.00,6,Rain-Snow-Thunderstorm,220
2013-10-30,42,35,28,32,30,27,93,83,65,30.07,29.99,29.93,10,10,3,9,3,,0.00,7,Snow,115
2013-10-31,48,42,35,32,30,28,87,70,46,30.19,30.14,30.07,10,10,10,12,3,17,0.00,7,,219